sensor_id;sensor_type;location;lat;lon;timestamp;P1;durP1;ratioP1;P2;durP2;ratioP2
13147;SDS011;6639;50.956;4.242;2023-06-26T00:00:08;4.38;;;3.97;;
13147;SDS011;6639;50.956;4.242;2023-06-26T00:02:36;4.22;;;3.80;;
13147;SDS011;6639;50.956;4.242;2023-06-26T00:05:03;4.05;;;3.28;;
13147;SDS011;6639;50.956;4.242;2023-06-26T00:07:31;3.97;;;3.67;;
13147;SDS011;6639;50.956;4.242;2023-06-26T00:10:00;4.00;;;3.53;;
13147;SDS011;6639;50.956;4.242;2023-06-26T00:12:28;4.47;;;4.07;;
13147;SDS011;6639;50.956;4.242;2023-06-26T00:14:55;4.47;;;3.65;;
13147;SDS011;6639;50.956;4.242;2023-06-26T00:17:22;6.15;;;3.60;;
13147;SDS011;6639;50.956;4.242;2023-06-26T00:19:49;3.83;;;3.38;;
13147;SDS011;6639;50.956;4.242;2023-06-26T00:22:16;3.55;;;3.05;;
13147;SDS011;6639;50.956;4.242;2023-06-26T00:24:43;4.55;;;3.55;;
13147;SDS011;6639;50.956;4.242;2023-06-26T00:27:12;3.38;;;3.08;;
13147;SDS011;6639;50.956;4.242;2023-06-26T00:29:39;3.90;;;3.50;;
13147;SDS011;6639;50.956;4.242;2023-06-26T00:32:06;4.15;;;3.63;;
13147;SDS011;6639;50.956;4.242;2023-06-26T00:34:33;4.13;;;3.53;;
13147;SDS011;6639;50.956;4.242;2023-06-26T00:37:00;3.88;;;3.47;;
13147;SDS011;6639;50.956;4.242;2023-06-26T00:39:27;4.07;;;3.38;;
13147;SDS011;6639;50.956;4.242;2023-06-26T00:41:53;3.40;;;3.05;;
13147;SDS011;6639;50.956;4.242;2023-06-26T00:44:22;3.50;;;3.20;;
13147;SDS011;6639;50.956;4.242;2023-06-26T00:46:49;3.50;;;3.00;;
13147;SDS011;6639;50.956;4.242;2023-06-26T00:49:16;3.45;;;3.10;;
13147;SDS011;6639;50.956;4.242;2023-06-26T00:51:43;3.40;;;3.10;;
13147;SDS011;6639;50.956;4.242;2023-06-26T00:54:10;5.13;;;3.05;;
13147;SDS011;6639;50.956;4.242;2023-06-26T00:56:39;4.38;;;3.20;;
13147;SDS011;6639;50.956;4.242;2023-06-26T00:59:06;3.85;;;3.10;;
13147;SDS011;6639;50.956;4.242;2023-06-26T01:01:35;4.00;;;2.67;;
13147;SDS011;6639;50.956;4.242;2023-06-26T01:04:01;4.07;;;2.83;;
13147;SDS011;6639;50.956;4.242;2023-06-26T01:06:30;3.65;;;3.33;;
13147;SDS011;6639;50.956;4.242;2023-06-26T01:09:00;4.28;;;3.05;;
13147;SDS011;6639;50.956;4.242;2023-06-26T01:11:28;3.50;;;3.20;;
13147;SDS011;6639;50.956;4.242;2023-06-26T01:13:55;3.65;;;3.20;;
13147;SDS011;6639;50.956;4.242;2023-06-26T01:16:24;3.40;;;3.10;;
13147;SDS011;6639;50.956;4.242;2023-06-26T01:18:52;4.28;;;3.10;;
13147;SDS011;6639;50.956;4.242;2023-06-26T01:21:20;4.07;;;3.67;;
13147;SDS011;6639;50.956;4.242;2023-06-26T01:23:49;4.10;;;3.13;;
13147;SDS011;6639;50.956;4.242;2023-06-26T01:26:27;4.15;;;2.70;;
13147;SDS011;6639;50.956;4.242;2023-06-26T01:28:56;5.55;;;2.88;;
13147;SDS011;6639;50.956;4.242;2023-06-26T01:31:26;4.18;;;3.05;;
13147;SDS011;6639;50.956;4.242;2023-06-26T01:33:55;3.05;;;2.60;;
13147;SDS011;6639;50.956;4.242;2023-06-26T01:36:23;5.10;;;3.22;;
13147;SDS011;6639;50.956;4.242;2023-06-26T01:38:50;3.28;;;2.97;;
13147;SDS011;6639;50.956;4.242;2023-06-26T01:41:17;3.60;;;2.78;;
13147;SDS011;6639;50.956;4.242;2023-06-26T01:43:51;2.90;;;2.55;;
13147;SDS011;6639;50.956;4.242;2023-06-26T01:46:39;6.05;;;3.08;;
13147;SDS011;6639;50.956;4.242;2023-06-26T01:49:12;3.53;;;2.55;;
13147;SDS011;6639;50.956;4.242;2023-06-26T01:51:45;3.22;;;2.90;;
13147;SDS011;6639;50.956;4.242;2023-06-26T01:54:18;5.35;;;2.63;;
13147;SDS011;6639;50.956;4.242;2023-06-26T01:56:48;4.93;;;2.83;;
13147;SDS011;6639;50.956;4.242;2023-06-26T01:59:20;3.22;;;2.50;;
13147;SDS011;6639;50.956;4.242;2023-06-26T02:01:48;3.60;;;2.55;;
13147;SDS011;6639;50.956;4.242;2023-06-26T02:04:15;3.35;;;3.03;;
13147;SDS011;6639;50.956;4.242;2023-06-26T02:06:42;2.97;;;2.65;;
13147;SDS011;6639;50.956;4.242;2023-06-26T02:09:09;3.10;;;2.45;;
13147;SDS011;6639;50.956;4.242;2023-06-26T02:11:36;4.90;;;3.22;;
13147;SDS011;6639;50.956;4.242;2023-06-26T02:14:03;4.13;;;2.75;;
13147;SDS011;6639;50.956;4.242;2023-06-26T02:16:31;4.95;;;3.40;;
13147;SDS011;6639;50.956;4.242;2023-06-26T02:18:58;4.57;;;3.03;;
13147;SDS011;6639;50.956;4.242;2023-06-26T02:21:25;4.43;;;3.28;;
13147;SDS011;6639;50.956;4.242;2023-06-26T02:23:51;6.00;;;3.60;;
13147;SDS011;6639;50.956;4.242;2023-06-26T02:26:18;4.78;;;3.13;;
13147;SDS011;6639;50.956;4.242;2023-06-26T02:28:45;4.90;;;2.75;;
13147;SDS011;6639;50.956;4.242;2023-06-26T02:31:12;3.40;;;3.10;;
13147;SDS011;6639;50.956;4.242;2023-06-26T02:33:42;5.20;;;3.53;;
13147;SDS011;6639;50.956;4.242;2023-06-26T02:36:10;6.22;;;3.45;;
13147;SDS011;6639;50.956;4.242;2023-06-26T02:38:37;5.72;;;3.55;;
13147;SDS011;6639;50.956;4.242;2023-06-26T02:41:04;4.28;;;3.10;;
13147;SDS011;6639;50.956;4.242;2023-06-26T02:43:31;4.95;;;3.47;;
13147;SDS011;6639;50.956;4.242;2023-06-26T02:45:58;6.10;;;3.25;;
13147;SDS011;6639;50.956;4.242;2023-06-26T02:48:24;5.28;;;3.42;;
13147;SDS011;6639;50.956;4.242;2023-06-26T02:50:53;6.80;;;3.22;;
13147;SDS011;6639;50.956;4.242;2023-06-26T02:53:19;8.00;;;3.78;;
13147;SDS011;6639;50.956;4.242;2023-06-26T02:55:46;6.15;;;3.75;;
13147;SDS011;6639;50.956;4.242;2023-06-26T02:58:13;5.30;;;3.20;;
13147;SDS011;6639;50.956;4.242;2023-06-26T03:00:40;6.53;;;4.00;;
13147;SDS011;6639;50.956;4.242;2023-06-26T03:03:08;6.88;;;3.78;;
13147;SDS011;6639;50.956;4.242;2023-06-26T03:05:35;7.82;;;3.53;;
13147;SDS011;6639;50.956;4.242;2023-06-26T03:08:03;8.10;;;4.22;;
13147;SDS011;6639;50.956;4.242;2023-06-26T03:10:31;7.88;;;3.75;;
13147;SDS011;6639;50.956;4.242;2023-06-26T03:12:58;7.72;;;3.97;;
13147;SDS011;6639;50.956;4.242;2023-06-26T03:15:25;6.38;;;4.03;;
13147;SDS011;6639;50.956;4.242;2023-06-26T03:17:52;6.68;;;3.58;;
13147;SDS011;6639;50.956;4.242;2023-06-26T03:20:19;8.65;;;4.00;;
13147;SDS011;6639;50.956;4.242;2023-06-26T03:22:46;6.95;;;3.92;;
13147;SDS011;6639;50.956;4.242;2023-06-26T03:25:14;6.70;;;4.18;;
13147;SDS011;6639;50.956;4.242;2023-06-26T03:27:41;6.78;;;3.58;;
13147;SDS011;6639;50.956;4.242;2023-06-26T03:30:08;7.28;;;3.85;;
13147;SDS011;6639;50.956;4.242;2023-06-26T03:32:36;8.00;;;4.35;;
13147;SDS011;6639;50.956;4.242;2023-06-26T03:35:03;6.55;;;4.00;;
13147;SDS011;6639;50.956;4.242;2023-06-26T03:37:30;5.22;;;3.88;;
13147;SDS011;6639;50.956;4.242;2023-06-26T03:39:57;9.82;;;4.50;;
13147;SDS011;6639;50.956;4.242;2023-06-26T03:42:25;8.43;;;3.58;;
13147;SDS011;6639;50.956;4.242;2023-06-26T03:44:52;7.93;;;3.85;;
13147;SDS011;6639;50.956;4.242;2023-06-26T03:47:19;7.57;;;4.18;;
13147;SDS011;6639;50.956;4.242;2023-06-26T03:49:46;6.97;;;4.07;;
13147;SDS011;6639;50.956;4.242;2023-06-26T03:52:13;9.93;;;4.78;;
13147;SDS011;6639;50.956;4.242;2023-06-26T03:54:39;7.45;;;4.65;;
13147;SDS011;6639;50.956;4.242;2023-06-26T03:57:06;10.70;;;4.20;;
13147;SDS011;6639;50.956;4.242;2023-06-26T03:59:35;10.43;;;4.15;;
13147;SDS011;6639;50.956;4.242;2023-06-26T04:02:02;5.05;;;3.80;;
13147;SDS011;6639;50.956;4.242;2023-06-26T04:04:29;4.55;;;3.22;;
13147;SDS011;6639;50.956;4.242;2023-06-26T04:06:56;6.85;;;3.95;;
13147;SDS011;6639;50.956;4.242;2023-06-26T04:09:24;7.97;;;4.00;;
13147;SDS011;6639;50.956;4.242;2023-06-26T04:11:51;8.15;;;3.75;;
13147;SDS011;6639;50.956;4.242;2023-06-26T04:14:18;10.75;;;3.75;;
13147;SDS011;6639;50.956;4.242;2023-06-26T04:16:46;7.53;;;3.90;;
13147;SDS011;6639;50.956;4.242;2023-06-26T04:19:13;9.25;;;4.43;;
13147;SDS011;6639;50.956;4.242;2023-06-26T04:21:40;6.28;;;3.95;;
13147;SDS011;6639;50.956;4.242;2023-06-26T04:24:07;7.88;;;4.18;;
13147;SDS011;6639;50.956;4.242;2023-06-26T04:26:34;7.28;;;3.33;;
13147;SDS011;6639;50.956;4.242;2023-06-26T04:29:01;7.38;;;3.85;;
13147;SDS011;6639;50.956;4.242;2023-06-26T04:31:28;8.30;;;3.47;;
13147;SDS011;6639;50.956;4.242;2023-06-26T04:33:56;9.77;;;3.95;;
13147;SDS011;6639;50.956;4.242;2023-06-26T04:36:24;8.73;;;3.45;;
13147;SDS011;6639;50.956;4.242;2023-06-26T04:38:53;9.77;;;4.03;;
13147;SDS011;6639;50.956;4.242;2023-06-26T04:41:20;7.40;;;3.58;;
13147;SDS011;6639;50.956;4.242;2023-06-26T04:43:47;5.35;;;3.00;;
13147;SDS011;6639;50.956;4.242;2023-06-26T04:46:14;6.68;;;3.30;;
13147;SDS011;6639;50.956;4.242;2023-06-26T04:48:41;9.40;;;3.13;;
13147;SDS011;6639;50.956;4.242;2023-06-26T04:51:11;9.02;;;3.65;;
13147;SDS011;6639;50.956;4.242;2023-06-26T04:53:37;5.15;;;3.50;;
13147;SDS011;6639;50.956;4.242;2023-06-26T04:56:04;7.30;;;2.95;;
13147;SDS011;6639;50.956;4.242;2023-06-26T04:58:32;6.43;;;3.47;;
13147;SDS011;6639;50.956;4.242;2023-06-26T05:00:59;6.78;;;3.20;;
13147;SDS011;6639;50.956;4.242;2023-06-26T05:03:25;8.45;;;3.33;;
13147;SDS011;6639;50.956;4.242;2023-06-26T05:05:52;7.18;;;3.15;;
13147;SDS011;6639;50.956;4.242;2023-06-26T05:08:22;8.55;;;3.17;;
13147;SDS011;6639;50.956;4.242;2023-06-26T05:10:51;5.63;;;2.88;;
13147;SDS011;6639;50.956;4.242;2023-06-26T05:13:22;10.95;;;2.95;;
13147;SDS011;6639;50.956;4.242;2023-06-26T05:15:49;6.43;;;2.80;;
13147;SDS011;6639;50.956;4.242;2023-06-26T05:18:18;5.93;;;2.65;;
13147;SDS011;6639;50.956;4.242;2023-06-26T05:20:46;6.00;;;3.20;;
13147;SDS011;6639;50.956;4.242;2023-06-26T05:23:13;7.40;;;3.03;;
13147;SDS011;6639;50.956;4.242;2023-06-26T05:25:43;3.42;;;2.25;;
13147;SDS011;6639;50.956;4.242;2023-06-26T05:28:11;5.93;;;2.50;;
13147;SDS011;6639;50.956;4.242;2023-06-26T05:30:40;10.13;;;3.03;;
13147;SDS011;6639;50.956;4.242;2023-06-26T05:33:08;7.10;;;2.65;;
13147;SDS011;6639;50.956;4.242;2023-06-26T05:35:38;5.97;;;2.22;;
13147;SDS011;6639;50.956;4.242;2023-06-26T05:38:05;6.75;;;2.63;;
13147;SDS011;6639;50.956;4.242;2023-06-26T05:40:33;5.38;;;2.55;;
13147;SDS011;6639;50.956;4.242;2023-06-26T05:43:02;4.88;;;2.90;;
13147;SDS011;6639;50.956;4.242;2023-06-26T05:45:29;6.20;;;2.60;;
13147;SDS011;6639;50.956;4.242;2023-06-26T05:47:56;4.50;;;2.67;;
13147;SDS011;6639;50.956;4.242;2023-06-26T05:50:24;7.88;;;2.55;;
13147;SDS011;6639;50.956;4.242;2023-06-26T05:52:51;4.20;;;2.13;;
13147;SDS011;6639;50.956;4.242;2023-06-26T05:55:19;6.07;;;2.17;;
13147;SDS011;6639;50.956;4.242;2023-06-26T05:57:47;4.43;;;2.08;;
13147;SDS011;6639;50.956;4.242;2023-06-26T06:00:18;4.05;;;2.20;;
13147;SDS011;6639;50.956;4.242;2023-06-26T06:02:45;5.10;;;2.00;;
13147;SDS011;6639;50.956;4.242;2023-06-26T06:05:12;5.25;;;1.98;;
13147;SDS011;6639;50.956;4.242;2023-06-26T06:07:39;5.70;;;2.28;;
13147;SDS011;6639;50.956;4.242;2023-06-26T06:10:06;4.70;;;2.22;;
13147;SDS011;6639;50.956;4.242;2023-06-26T06:12:33;4.93;;;1.75;;
13147;SDS011;6639;50.956;4.242;2023-06-26T06:15:00;4.57;;;1.75;;
13147;SDS011;6639;50.956;4.242;2023-06-26T06:17:28;4.47;;;1.70;;
13147;SDS011;6639;50.956;4.242;2023-06-26T06:19:55;3.78;;;1.58;;
13147;SDS011;6639;50.956;4.242;2023-06-26T06:22:22;4.53;;;1.88;;
13147;SDS011;6639;50.956;4.242;2023-06-26T06:24:50;5.03;;;1.77;;
13147;SDS011;6639;50.956;4.242;2023-06-26T06:39:24;3.20;;;1.70;;
13147;SDS011;6639;50.956;4.242;2023-06-26T06:41:51;5.80;;;2.00;;
13147;SDS011;6639;50.956;4.242;2023-06-26T06:44:18;2.33;;;1.50;;
13147;SDS011;6639;50.956;4.242;2023-06-26T06:46:45;6.68;;;2.17;;
13147;SDS011;6639;50.956;4.242;2023-06-26T06:49:12;5.90;;;1.77;;
13147;SDS011;6639;50.956;4.242;2023-06-26T06:51:38;6.57;;;2.38;;
13147;SDS011;6639;50.956;4.242;2023-06-26T06:54:05;4.20;;;1.92;;
13147;SDS011;6639;50.956;4.242;2023-06-26T06:56:34;3.97;;;1.90;;
13147;SDS011;6639;50.956;4.242;2023-06-26T06:59:00;4.53;;;2.08;;
13147;SDS011;6639;50.956;4.242;2023-06-26T07:01:28;2.78;;;1.80;;
13147;SDS011;6639;50.956;4.242;2023-06-26T07:03:55;6.13;;;2.17;;
13147;SDS011;6639;50.956;4.242;2023-06-26T07:06:22;4.03;;;1.70;;
13147;SDS011;6639;50.956;4.242;2023-06-26T07:08:49;2.53;;;1.70;;
13147;SDS011;6639;50.956;4.242;2023-06-26T07:11:16;4.03;;;1.70;;
13147;SDS011;6639;50.956;4.242;2023-06-26T07:13:45;2.67;;;1.75;;
13147;SDS011;6639;50.956;4.242;2023-06-26T07:16:11;3.90;;;1.95;;
13147;SDS011;6639;50.956;4.242;2023-06-26T07:18:40;4.53;;;1.92;;
13147;SDS011;6639;50.956;4.242;2023-06-26T07:21:08;3.10;;;1.63;;
13147;SDS011;6639;50.956;4.242;2023-06-26T07:23:35;3.28;;;1.50;;
13147;SDS011;6639;50.956;4.242;2023-06-26T07:26:02;2.88;;;1.90;;
13147;SDS011;6639;50.956;4.242;2023-06-26T07:28:29;4.03;;;1.70;;
13147;SDS011;6639;50.956;4.242;2023-06-26T07:30:57;3.47;;;1.98;;
13147;SDS011;6639;50.956;4.242;2023-06-26T07:33:24;2.63;;;1.85;;
13147;SDS011;6639;50.956;4.242;2023-06-26T07:35:51;4.03;;;2.15;;
13147;SDS011;6639;50.956;4.242;2023-06-26T07:38:18;4.32;;;1.80;;
13147;SDS011;6639;50.956;4.242;2023-06-26T07:40:44;3.13;;;1.70;;
13147;SDS011;6639;50.956;4.242;2023-06-26T07:43:11;3.80;;;1.60;;
13147;SDS011;6639;50.956;4.242;2023-06-26T07:45:38;4.03;;;2.00;;
13147;SDS011;6639;50.956;4.242;2023-06-26T07:48:07;2.90;;;1.50;;
13147;SDS011;6639;50.956;4.242;2023-06-26T07:50:34;4.50;;;1.73;;
13147;SDS011;6639;50.956;4.242;2023-06-26T07:53:01;4.93;;;1.60;;
13147;SDS011;6639;50.956;4.242;2023-06-26T07:55:30;3.97;;;1.90;;
13147;SDS011;6639;50.956;4.242;2023-06-26T07:57:57;2.03;;;1.50;;
13147;SDS011;6639;50.956;4.242;2023-06-26T08:00:24;3.35;;;2.00;;
13147;SDS011;6639;50.956;4.242;2023-06-26T08:02:51;3.47;;;1.90;;
13147;SDS011;6639;50.956;4.242;2023-06-26T08:05:19;2.33;;;1.40;;
13147;SDS011;6639;50.956;4.242;2023-06-26T08:07:46;3.28;;;1.58;;
13147;SDS011;6639;50.956;4.242;2023-06-26T08:10:13;1.80;;;1.40;;
13147;SDS011;6639;50.956;4.242;2023-06-26T08:12:40;3.45;;;1.60;;
13147;SDS011;6639;50.956;4.242;2023-06-26T08:15:09;5.38;;;2.22;;
13147;SDS011;6639;50.956;4.242;2023-06-26T08:17:37;3.50;;;1.83;;
13147;SDS011;6639;50.956;4.242;2023-06-26T08:20:04;3.20;;;1.50;;
13147;SDS011;6639;50.956;4.242;2023-06-26T08:22:35;4.32;;;1.80;;
13147;SDS011;6639;50.956;4.242;2023-06-26T08:25:02;3.15;;;1.70;;
13147;SDS011;6639;50.956;4.242;2023-06-26T08:27:30;4.03;;;1.75;;
13147;SDS011;6639;50.956;4.242;2023-06-26T08:29:58;2.65;;;1.70;;
13147;SDS011;6639;50.956;4.242;2023-06-26T08:32:24;3.78;;;2.03;;
13147;SDS011;6639;50.956;4.242;2023-06-26T08:34:51;2.53;;;1.40;;
13147;SDS011;6639;50.956;4.242;2023-06-26T08:37:18;3.50;;;1.45;;
13147;SDS011;6639;50.956;4.242;2023-06-26T08:39:47;3.83;;;1.60;;
13147;SDS011;6639;50.956;4.242;2023-06-26T08:42:14;3.72;;;1.50;;
13147;SDS011;6639;50.956;4.242;2023-06-26T08:44:41;2.20;;;1.20;;
13147;SDS011;6639;50.956;4.242;2023-06-26T08:47:09;4.28;;;1.50;;
13147;SDS011;6639;50.956;4.242;2023-06-26T08:49:42;4.97;;;1.67;;
13147;SDS011;6639;50.956;4.242;2023-06-26T08:52:14;4.53;;;1.67;;
13147;SDS011;6639;50.956;4.242;2023-06-26T08:54:45;2.40;;;1.48;;
13147;SDS011;6639;50.956;4.242;2023-06-26T08:57:17;3.83;;;1.60;;
13147;SDS011;6639;50.956;4.242;2023-06-26T08:59:45;1.77;;;1.30;;
13147;SDS011;6639;50.956;4.242;2023-06-26T09:02:13;2.28;;;1.55;;
13147;SDS011;6639;50.956;4.242;2023-06-26T09:04:40;1.90;;;1.35;;
13147;SDS011;6639;50.956;4.242;2023-06-26T09:07:08;3.80;;;1.73;;
13147;SDS011;6639;50.956;4.242;2023-06-26T09:09:35;3.25;;;1.48;;
13147;SDS011;6639;50.956;4.242;2023-06-26T09:12:04;3.80;;;1.40;;
13147;SDS011;6639;50.956;4.242;2023-06-26T09:14:32;6.72;;;1.75;;
13147;SDS011;6639;50.956;4.242;2023-06-26T09:16:59;2.47;;;1.45;;
13147;SDS011;6639;50.956;4.242;2023-06-26T09:19:27;2.42;;;1.25;;
13147;SDS011;6639;50.956;4.242;2023-06-26T09:21:54;5.97;;;1.55;;
13147;SDS011;6639;50.956;4.242;2023-06-26T09:24:21;2.20;;;1.13;;
13147;SDS011;6639;50.956;4.242;2023-06-26T09:26:48;0.90;;;0.75;;
13147;SDS011;6639;50.956;4.242;2023-06-26T09:29:18;1.83;;;1.25;;
13147;SDS011;6639;50.956;4.242;2023-06-26T09:31:46;2.08;;;1.10;;
13147;SDS011;6639;50.956;4.242;2023-06-26T09:34:13;1.67;;;1.10;;
13147;SDS011;6639;50.956;4.242;2023-06-26T09:36:40;1.58;;;1.02;;
13147;SDS011;6639;50.956;4.242;2023-06-26T09:39:11;3.42;;;1.13;;
13147;SDS011;6639;50.956;4.242;2023-06-26T09:41:40;2.88;;;1.40;;
13147;SDS011;6639;50.956;4.242;2023-06-26T09:44:09;3.13;;;1.38;;
13147;SDS011;6639;50.956;4.242;2023-06-26T09:46:38;1.20;;;1.10;;
13147;SDS011;6639;50.956;4.242;2023-06-26T09:49:06;3.42;;;1.35;;
13147;SDS011;6639;50.956;4.242;2023-06-26T09:51:34;1.35;;;1.20;;
13147;SDS011;6639;50.956;4.242;2023-06-26T09:54:03;1.52;;;1.20;;
13147;SDS011;6639;50.956;4.242;2023-06-26T09:56:32;2.80;;;1.40;;
13147;SDS011;6639;50.956;4.242;2023-06-26T09:59:00;2.78;;;1.38;;
13147;SDS011;6639;50.956;4.242;2023-06-26T10:01:29;1.45;;;1.13;;
13147;SDS011;6639;50.956;4.242;2023-06-26T10:03:57;4.00;;;1.58;;
13147;SDS011;6639;50.956;4.242;2023-06-26T10:06:27;2.30;;;1.30;;
13147;SDS011;6639;50.956;4.242;2023-06-26T10:08:58;2.58;;;1.20;;
13147;SDS011;6639;50.956;4.242;2023-06-26T10:11:28;1.58;;;1.25;;
13147;SDS011;6639;50.956;4.242;2023-06-26T10:13:59;3.28;;;1.25;;
13147;SDS011;6639;50.956;4.242;2023-06-26T10:16:27;1.58;;;1.08;;
13147;SDS011;6639;50.956;4.242;2023-06-26T10:19:00;3.13;;;1.50;;
13147;SDS011;6639;50.956;4.242;2023-06-26T10:21:31;1.52;;;1.10;;
13147;SDS011;6639;50.956;4.242;2023-06-26T10:24:01;1.70;;;1.15;;
13147;SDS011;6639;50.956;4.242;2023-06-26T10:26:30;3.30;;;1.50;;
13147;SDS011;6639;50.956;4.242;2023-06-26T10:28:58;3.40;;;1.30;;
13147;SDS011;6639;50.956;4.242;2023-06-26T10:31:26;3.22;;;1.40;;
13147;SDS011;6639;50.956;4.242;2023-06-26T10:33:55;2.65;;;1.48;;
13147;SDS011;6639;50.956;4.242;2023-06-26T10:36:28;1.95;;;1.30;;
13147;SDS011;6639;50.956;4.242;2023-06-26T10:38:57;2.95;;;1.30;;
13147;SDS011;6639;50.956;4.242;2023-06-26T10:41:25;3.25;;;1.50;;
13147;SDS011;6639;50.956;4.242;2023-06-26T10:44:05;3.13;;;1.58;;
13147;SDS011;6639;50.956;4.242;2023-06-26T10:46:48;2.28;;;1.45;;
13147;SDS011;6639;50.956;4.242;2023-06-26T10:49:18;2.60;;;1.10;;
13147;SDS011;6639;50.956;4.242;2023-06-26T10:51:49;1.95;;;1.25;;
13147;SDS011;6639;50.956;4.242;2023-06-26T10:54:17;2.67;;;1.10;;
13147;SDS011;6639;50.956;4.242;2023-06-26T10:56:45;1.63;;;1.00;;
13147;SDS011;6639;50.956;4.242;2023-06-26T10:59:13;1.65;;;1.05;;
13147;SDS011;6639;50.956;4.242;2023-06-26T11:01:42;0.88;;;0.80;;
13147;SDS011;6639;50.956;4.242;2023-06-26T11:04:10;3.05;;;1.30;;
13147;SDS011;6639;50.956;4.242;2023-06-26T11:06:40;1.48;;;1.00;;
13147;SDS011;6639;50.956;4.242;2023-06-26T11:09:13;1.88;;;1.10;;
13147;SDS011;6639;50.956;4.242;2023-06-26T11:11:57;1.75;;;1.10;;
13147;SDS011;6639;50.956;4.242;2023-06-26T11:14:29;1.58;;;1.10;;
13147;SDS011;6639;50.956;4.242;2023-06-26T11:16:57;2.67;;;1.17;;
13147;SDS011;6639;50.956;4.242;2023-06-26T11:19:25;1.33;;;1.10;;
13147;SDS011;6639;50.956;4.242;2023-06-26T11:21:57;2.60;;;1.05;;
13147;SDS011;6639;50.956;4.242;2023-06-26T11:24:35;3.45;;;1.45;;
13147;SDS011;6639;50.956;4.242;2023-06-26T11:27:03;2.83;;;1.27;;
13147;SDS011;6639;50.956;4.242;2023-06-26T11:29:31;1.50;;;1.15;;
13147;SDS011;6639;50.956;4.242;2023-06-26T11:32:03;2.10;;;1.40;;
13147;SDS011;6639;50.956;4.242;2023-06-26T11:34:32;3.42;;;1.35;;
13147;SDS011;6639;50.956;4.242;2023-06-26T11:36:59;1.20;;;1.10;;
13147;SDS011;6639;50.956;4.242;2023-06-26T11:39:27;1.73;;;1.30;;
13147;SDS011;6639;50.956;4.242;2023-06-26T11:41:56;2.13;;;1.20;;
13147;SDS011;6639;50.956;4.242;2023-06-26T11:44:23;1.83;;;1.23;;
13147;SDS011;6639;50.956;4.242;2023-06-26T11:46:55;5.30;;;2.00;;
13147;SDS011;6639;50.956;4.242;2023-06-26T11:49:23;2.75;;;1.70;;
13147;SDS011;6639;50.956;4.242;2023-06-26T11:51:51;3.22;;;1.45;;
13147;SDS011;6639;50.956;4.242;2023-06-26T11:54:24;4.63;;;1.55;;
13147;SDS011;6639;50.956;4.242;2023-06-26T11:56:52;3.47;;;1.35;;
13147;SDS011;6639;50.956;4.242;2023-06-26T11:59:33;2.75;;;1.50;;
13147;SDS011;6639;50.956;4.242;2023-06-26T12:02:04;2.22;;;1.60;;
13147;SDS011;6639;50.956;4.242;2023-06-26T12:04:32;2.08;;;1.35;;
13147;SDS011;6639;50.956;4.242;2023-06-26T12:07:00;3.28;;;1.63;;
13147;SDS011;6639;50.956;4.242;2023-06-26T12:09:30;2.35;;;1.23;;
13147;SDS011;6639;50.956;4.242;2023-06-26T12:12:00;3.63;;;1.50;;
13147;SDS011;6639;50.956;4.242;2023-06-26T12:14:27;3.25;;;1.40;;
13147;SDS011;6639;50.956;4.242;2023-06-26T12:16:55;3.25;;;1.70;;
13147;SDS011;6639;50.956;4.242;2023-06-26T12:19:25;4.00;;;1.50;;
13147;SDS011;6639;50.956;4.242;2023-06-26T12:21:52;4.53;;;1.70;;
13147;SDS011;6639;50.956;4.242;2023-06-26T12:24:22;3.65;;;1.35;;
13147;SDS011;6639;50.956;4.242;2023-06-26T12:26:51;1.98;;;1.45;;
13147;SDS011;6639;50.956;4.242;2023-06-26T12:29:28;3.08;;;1.63;;
13147;SDS011;6639;50.956;4.242;2023-06-26T12:31:57;4.72;;;1.75;;
13147;SDS011;6639;50.956;4.242;2023-06-26T12:34:26;8.13;;;1.55;;
13147;SDS011;6639;50.956;4.242;2023-06-26T12:36:53;2.17;;;1.60;;
13147;SDS011;6639;50.956;4.242;2023-06-26T12:39:25;1.58;;;1.45;;
13147;SDS011;6639;50.956;4.242;2023-06-26T12:41:53;1.98;;;1.40;;
13147;SDS011;6639;50.956;4.242;2023-06-26T12:44:25;1.33;;;1.23;;
13147;SDS011;6639;50.956;4.242;2023-06-26T12:46:53;3.42;;;1.98;;
13147;SDS011;6639;50.956;4.242;2023-06-26T12:49:28;2.33;;;1.50;;
13147;SDS011;6639;50.956;4.242;2023-06-26T12:51:59;3.50;;;1.45;;
13147;SDS011;6639;50.956;4.242;2023-06-26T12:54:28;2.05;;;1.50;;
13147;SDS011;6639;50.956;4.242;2023-06-26T12:56:55;2.95;;;1.30;;
13147;SDS011;6639;50.956;4.242;2023-06-26T12:59:23;4.95;;;1.70;;
13147;SDS011;6639;50.956;4.242;2023-06-26T13:01:50;2.78;;;1.30;;
13147;SDS011;6639;50.956;4.242;2023-06-26T13:04:18;3.53;;;1.30;;
13147;SDS011;6639;50.956;4.242;2023-06-26T13:06:45;1.75;;;1.15;;
13147;SDS011;6639;50.956;4.242;2023-06-26T13:09:12;2.33;;;1.38;;
13147;SDS011;6639;50.956;4.242;2023-06-26T13:11:39;3.42;;;1.55;;
13147;SDS011;6639;50.956;4.242;2023-06-26T13:14:06;1.35;;;1.20;;
13147;SDS011;6639;50.956;4.242;2023-06-26T13:16:34;2.58;;;1.77;;
13147;SDS011;6639;50.956;4.242;2023-06-26T13:19:02;2.53;;;1.60;;
13147;SDS011;6639;50.956;4.242;2023-06-26T13:21:29;2.95;;;1.20;;
13147;SDS011;6639;50.956;4.242;2023-06-26T13:23:56;1.80;;;1.70;;
13147;SDS011;6639;50.956;4.242;2023-06-26T13:26:24;3.08;;;1.48;;
13147;SDS011;6639;50.956;4.242;2023-06-26T13:28:53;2.65;;;1.70;;
13147;SDS011;6639;50.956;4.242;2023-06-26T13:31:21;2.92;;;1.23;;
13147;SDS011;6639;50.956;4.242;2023-06-26T13:33:49;2.50;;;1.40;;
13147;SDS011;6639;50.956;4.242;2023-06-26T13:36:19;3.03;;;1.75;;
13147;SDS011;6639;50.956;4.242;2023-06-26T13:38:48;3.17;;;1.40;;
13147;SDS011;6639;50.956;4.242;2023-06-26T13:41:20;2.45;;;1.55;;
13147;SDS011;6639;50.956;4.242;2023-06-26T13:43:48;3.65;;;1.38;;
13147;SDS011;6639;50.956;4.242;2023-06-26T13:46:15;2.53;;;1.45;;
13147;SDS011;6639;50.956;4.242;2023-06-26T13:48:42;2.72;;;1.45;;
13147;SDS011;6639;50.956;4.242;2023-06-26T13:51:10;3.28;;;1.75;;
13147;SDS011;6639;50.956;4.242;2023-06-26T13:53:37;1.92;;;1.42;;
13147;SDS011;6639;50.956;4.242;2023-06-26T13:56:04;2.33;;;1.45;;
13147;SDS011;6639;50.956;4.242;2023-06-26T13:58:34;4.38;;;1.67;;
13147;SDS011;6639;50.956;4.242;2023-06-26T14:01:01;2.55;;;1.50;;
13147;SDS011;6639;50.956;4.242;2023-06-26T14:03:29;7.40;;;1.90;;
13147;SDS011;6639;50.956;4.242;2023-06-26T14:05:56;1.20;;;1.10;;
13147;SDS011;6639;50.956;4.242;2023-06-26T14:08:24;1.30;;;1.13;;
13147;SDS011;6639;50.956;4.242;2023-06-26T14:10:51;2.70;;;1.42;;
13147;SDS011;6639;50.956;4.242;2023-06-26T14:13:18;3.33;;;1.50;;
13147;SDS011;6639;50.956;4.242;2023-06-26T14:15:45;4.18;;;1.35;;
13147;SDS011;6639;50.956;4.242;2023-06-26T14:18:12;3.92;;;1.38;;
13147;SDS011;6639;50.956;4.242;2023-06-26T14:20:39;2.88;;;1.38;;
13147;SDS011;6639;50.956;4.242;2023-06-26T14:23:06;4.78;;;1.40;;
13147;SDS011;6639;50.956;4.242;2023-06-26T14:25:35;1.90;;;1.27;;
13147;SDS011;6639;50.956;4.242;2023-06-26T14:28:01;1.85;;;1.60;;
13147;SDS011;6639;50.956;4.242;2023-06-26T14:30:28;3.08;;;1.40;;
13147;SDS011;6639;50.956;4.242;2023-06-26T14:32:55;2.50;;;1.52;;
13147;SDS011;6639;50.956;4.242;2023-06-26T14:35:22;5.13;;;1.50;;
13147;SDS011;6639;50.956;4.242;2023-06-26T14:37:49;2.38;;;1.35;;
13147;SDS011;6639;50.956;4.242;2023-06-26T14:40:16;3.42;;;1.42;;
13147;SDS011;6639;50.956;4.242;2023-06-26T14:42:44;3.38;;;1.52;;
13147;SDS011;6639;50.956;4.242;2023-06-26T14:45:11;2.63;;;1.30;;
13147;SDS011;6639;50.956;4.242;2023-06-26T14:47:38;1.85;;;1.05;;
13147;SDS011;6639;50.956;4.242;2023-06-26T14:50:05;5.07;;;1.73;;
13147;SDS011;6639;50.956;4.242;2023-06-26T14:52:34;4.65;;;1.50;;
13147;SDS011;6639;50.956;4.242;2023-06-26T14:55:00;1.50;;;1.08;;
13147;SDS011;6639;50.956;4.242;2023-06-26T14:57:27;3.03;;;1.52;;
13147;SDS011;6639;50.956;4.242;2023-06-26T14:59:56;3.92;;;1.42;;
13147;SDS011;6639;50.956;4.242;2023-06-26T15:02:23;2.97;;;1.50;;
13147;SDS011;6639;50.956;4.242;2023-06-26T15:04:50;2.28;;;1.70;;
13147;SDS011;6639;50.956;4.242;2023-06-26T15:07:17;5.25;;;1.67;;
13147;SDS011;6639;50.956;4.242;2023-06-26T15:09:44;1.92;;;1.10;;
13147;SDS011;6639;50.956;4.242;2023-06-26T15:12:11;2.55;;;1.42;;
13147;SDS011;6639;50.956;4.242;2023-06-26T15:14:38;3.53;;;1.52;;
13147;SDS011;6639;50.956;4.242;2023-06-26T15:17:06;2.05;;;1.52;;